Time;durP1;ratioP1;P1;durP2;ratioP2;P2;SDS_P1;SDS_P2;PMS_P1;PMS_P2;Temp;Humidity;BMP_temperature;BMP_pressure;BME280_temperature;BME280_humidity;BME280_pressure;Samples;Min_cycle;Max_cycle;Signal;HPM_P1;HPM_P2
2023/04/10 00:00:08;;;;;;;10.30;8.68;;;13.80;71.10;;;;;;5022546;28;20044;-83
2023/04/10 00:02:37;;;;;;;10.68;9.00;;;13.80;71.10;;;;;;5021903;28;20021;-82
2023/04/10 00:05:03;;;;;;;10.00;8.30;;;13.80;71.20;;;;;;5005991;28;20041;-84
2023/04/10 00:07:30;;;;;;;9.32;8.18;;;13.80;71.20;;;;;;5005694;28;20124;-83
2023/04/10 00:09:56;;;;;;;10.50;8.70;;;13.80;71.20;;;;;;5022254;28;20060;-85
2023/04/10 00:12:21;;;;;;;9.20;7.85;;;13.70;71.20;;;;;;5005564;28;20064;-82
2023/04/10 00:14:47;;;;;;;11.43;8.75;;;13.70;71.20;;;;;;5005463;28;20037;-84
2023/04/10 00:17:13;;;;;;;10.15;8.32;;;13.70;71.30;;;;;;5005209;28;20064;-84
2023/04/10 00:19:39;;;;;;;9.70;7.85;;;13.70;71.20;;;;;;5006160;28;20347;-82
2023/04/10 00:22:05;;;;;;;10.32;8.70;;;13.60;71.20;;;;;;5005666;28;20094;-82
2023/04/10 00:24:30;;;;;;;11.02;8.55;;;13.60;71.20;;;;;;5005356;28;20029;-83
2023/04/10 00:26:56;;;;;;;9.77;7.75;;;13.60;71.30;;;;;;5038562;28;20116;-83
2023/04/10 00:29:23;;;;;;;11.02;8.07;;;13.60;71.30;;;;;;5022168;28;20164;-83
2023/04/10 00:31:49;;;;;;;8.98;7.60;;;13.50;71.30;;;;;;5021458;28;20527;-83
2023/04/10 00:34:15;;;;;;;9.23;7.80;;;13.50;71.30;;;;;;5037955;28;20136;-83
2023/04/10 00:36:41;;;;;;;9.48;7.57;;;13.50;71.30;;;;;;5021266;28;20029;-82
2023/04/10 00:39:08;;;;;;;10.52;8.32;;;13.50;71.40;;;;;;5037807;28;20159;-83
2023/04/10 00:41:34;;;;;;;9.77;8.13;;;13.50;71.40;;;;;;5021826;28;20037;-83
2023/04/10 00:44:00;;;;;;;8.55;7.40;;;13.40;71.40;;;;;;5005003;28;20029;-82
2023/04/10 00:46:27;;;;;;;9.20;7.28;;;13.40;71.40;;;;;;5021100;28;20120;-83
2023/04/10 00:48:55;;;;;;;9.27;7.53;;;13.40;71.50;;;;;;5020831;28;20029;-85
2023/04/10 00:51:21;;;;;;;9.20;7.30;;;13.30;71.40;;;;;;5037536;28;20017;-84
2023/04/10 00:53:50;;;;;;;9.00;7.28;;;13.30;71.40;;;;;;5037385;28;20029;-86
2023/04/10 00:56:20;;;;;;;10.02;7.25;;;13.30;71.50;;;;;;5021273;28;20412;-82
2023/04/10 00:58:47;;;;;;;8.48;7.32;;;13.30;71.50;;;;;;5037768;28;20032;-82
2023/04/10 01:01:13;;;;;;;9.18;7.00;;;13.30;71.60;;;;;;5055619;28;20387;-82
2023/04/10 01:03:40;;;;;;;9.20;7.30;;;13.30;71.60;;;;;;5037250;28;20041;-83
2023/04/10 01:06:33;;;;;;;8.60;6.88;;;13.20;71.60;;;;;;5020923;28;20021;-83
2023/04/10 01:09:30;;;;;;;8.43;6.53;;;13.20;71.70;;;;;;5021313;28;20086;-83
2023/04/10 01:12:11;;;;;;;7.70;6.07;;;13.20;71.70;;;;;;5055609;28;20037;-85
2023/04/10 01:15:00;;;;;;;7.95;6.55;;;13.20;71.70;;;;;;5037630;28;20040;-84
2023/04/10 01:17:56;;;;;;;7.82;6.18;;;13.10;71.70;;;;;;5020233;28;20028;-83
2023/04/10 01:20:23;;;;;;;;;;;13.10;71.70;;;;;;5021247;28;20397;-83
2023/04/10 01:23:26;;;;;;;7.78;5.63;;;13.00;71.60;;;;;;5054419;28;19996;-84
2023/04/10 01:26:08;;;;;;;6.90;5.47;;;13.00;71.70;;;;;;5020380;28;20087;-84
2023/04/10 01:28:59;;;;;;;7.20;5.70;;;13.00;71.70;;;;;;5020867;28;20059;-85
2023/04/10 01:31:41;;;;;;;7.22;5.72;;;12.90;71.70;;;;;;5037072;28;20487;-83
2023/04/10 01:34:31;;;;;;;7.68;5.85;;;13.00;71.80;;;;;;5037673;28;20041;-86
2023/04/10 01:37:33;;;;;;;7.43;5.28;;;12.90;71.80;;;;;;5038880;28;20087;-86
2023/04/10 01:40:02;;;;;;;7.80;5.72;;;12.90;71.80;;;;;;5021207;28;20036;-85
2023/04/10 01:42:31;;;;;;;7.43;5.97;;;12.90;71.80;;;;;;5037012;28;20044;-86
2023/04/10 01:44:58;;;;;;;8.70;6.22;;;12.80;71.80;;;;;;5021201;28;20033;-87
2023/04/10 01:47:25;;;;;;;8.13;6.28;;;12.80;71.80;;;;;;5005128;28;20063;-86
2023/04/10 01:49:52;;;;;;;7.90;6.28;;;12.80;71.80;;;;;;5021313;28;20115;-86
2023/04/10 01:52:21;;;;;;;7.10;5.47;;;12.80;71.80;;;;;;5021387;28;20029;-86
2023/04/10 01:54:53;;;;;;;7.80;5.65;;;12.80;71.80;;;;;;5022664;28;20106;-87
2023/04/10 01:57:25;;;;;;;9.20;6.20;;;12.80;71.90;;;;;;5046703;28;20059;-86
2023/04/10 01:59:57;;;;;;;7.10;5.63;;;12.70;71.80;;;;;;5015651;28;20048;-87
2023/04/10 02:02:23;;;;;;;8.00;6.00;;;12.70;71.80;;;;;;5026072;28;20037;-88
2023/04/10 02:04:51;;;;;;;7.32;5.47;;;12.70;71.90;;;;;;5021205;28;20493;-87
2023/04/10 02:07:20;;;;;;;7.40;5.60;;;12.70;71.90;;;;;;5038461;28;20025;-85
2023/04/10 02:09:52;;;;;;;7.38;5.78;;;12.70;71.90;;;;;;5037534;28;20385;-85
2023/04/10 02:12:29;;;;;;;7.55;5.82;;;12.60;71.90;;;;;;5036782;28;20044;-85
2023/04/10 02:15:00;;;;;;;7.50;5.75;;;12.60;71.90;;;;;;5021077;28;20033;-86
2023/04/10 02:17:29;;;;;;;7.60;5.57;;;12.60;71.90;;;;;;5021187;28;20082;-84
2023/04/10 02:19:59;;;;;;;7.10;5.35;;;12.60;72.00;;;;;;5036596;28;20021;-86
2023/04/10 02:22:25;;;;;;;7.40;5.38;;;12.60;72.00;;;;;;5004057;28;20033;-87
2023/04/10 02:24:52;;;;;;;7.72;5.68;;;12.50;71.90;;;;;;5037033;28;20048;-86
2023/04/10 02:27:31;;;;;;;7.03;5.82;;;12.50;72.10;;;;;;5036995;28;20025;-86
2023/04/10 02:29:58;;;;;;;6.70;5.10;;;12.50;72.10;;;;;;5037061;28;20025;-86
2023/04/10 02:32:24;;;;;;;7.43;5.85;;;12.50;72.00;;;;;;5003686;28;20041;-87
2023/04/10 02:34:50;;;;;;;7.07;5.70;;;12.50;72.10;;;;;;5020935;28;20363;-87
2023/04/10 02:37:16;;;;;;;6.88;5.25;;;12.50;72.10;;;;;;5036532;28;20040;-86
2023/04/10 02:39:42;;;;;;;7.45;5.53;;;12.40;72.10;;;;;;5020407;28;20394;-86
2023/04/10 02:42:08;;;;;;;6.93;5.40;;;12.40;72.10;;;;;;5036701;28;20025;-87
2023/04/10 02:44:34;;;;;;;7.68;5.45;;;12.40;72.10;;;;;;5037188;28;20037;-86
2023/04/10 02:47:00;;;;;;;7.32;5.28;;;12.40;72.10;;;;;;5004428;28;20056;-86
2023/04/10 02:49:27;;;;;;;6.82;5.68;;;12.30;72.10;;;;;;5020709;28;20033;-87
2023/04/10 02:51:52;;;;;;;7.53;5.72;;;12.30;72.10;;;;;;5020354;28;20036;-85
2023/04/10 02:54:18;;;;;;;7.00;5.47;;;12.30;72.10;;;;;;5020865;28;20116;-84
2023/04/10 02:56:44;;;;;;;7.00;5.28;;;12.30;72.20;;;;;;5020549;28;20370;-87
2023/04/10 02:59:12;;;;;;;7.70;5.68;;;12.30;72.20;;;;;;5003803;28;20029;-86
2023/04/10 03:01:38;;;;;;;8.85;6.15;;;12.20;72.10;;;;;;5020003;28;20048;-87
2023/04/10 03:04:05;;;;;;;7.03;5.15;;;12.20;72.20;;;;;;5020324;28;20033;-86
2023/04/10 03:06:35;;;;;;;7.53;5.82;;;12.20;72.30;;;;;;5005334;28;20124;-86
2023/04/10 03:09:01;;;;;;;7.20;5.47;;;12.20;72.20;;;;;;5019958;28;20061;-87
2023/04/10 03:11:27;;;;;;;7.38;5.57;;;12.20;72.30;;;;;;5020197;28;20120;-87
2023/04/10 03:13:53;;;;;;;7.47;5.45;;;12.20;72.30;;;;;;5020113;28;20086;-87
2023/04/10 03:16:19;;;;;;;6.72;5.38;;;12.20;72.30;;;;;;5020140;28;20025;-87
2023/04/10 03:18:46;;;;;;;7.63;5.78;;;12.10;72.30;;;;;;5037261;28;20130;-86
2023/04/10 03:21:11;;;;;;;7.63;5.75;;;12.10;72.30;;;;;;5003570;28;20461;-87
2023/04/10 03:23:37;;;;;;;6.85;5.30;;;12.10;72.30;;;;;;5003262;28;20029;-87
2023/04/10 03:26:03;;;;;;;7.35;5.72;;;12.10;72.40;;;;;;5053861;28;20029;-87
2023/04/10 03:28:31;;;;;;;6.43;4.90;;;12.00;72.40;;;;;;5004137;28;20033;-87
2023/04/10 03:30:57;;;;;;;7.00;5.50;;;12.00;72.50;;;;;;5004442;28;20397;-88
2023/04/10 03:33:23;;;;;;;7.22;5.85;;;12.00;72.50;;;;;;5039578;28;20135;-87
2023/04/10 03:35:49;;;;;;;7.07;5.47;;;12.00;72.60;;;;;;5008227;28;20033;-88
2023/04/10 03:38:15;;;;;;;7.40;5.45;;;11.90;72.60;;;;;;5039684;28;20060;-86
2023/04/10 03:40:40;;;;;;;7.45;5.43;;;11.90;72.60;;;;;;5057664;28;20033;-86
2023/04/10 03:43:08;;;;;;;7.00;4.97;;;11.90;72.70;;;;;;5008498;28;20076;-87
2023/04/10 03:45:34;;;;;;;7.55;5.72;;;11.90;72.70;;;;;;5023274;28;20025;-86
2023/04/10 03:48:01;;;;;;;6.90;5.53;;;11.80;72.60;;;;;;5007322;28;20029;-85
2023/04/10 03:50:36;;;;;;;;;;;11.80;72.70;;;;;;5040809;28;20413;-87
2023/04/10 03:53:02;;;;;;;7.72;5.20;;;11.80;72.60;;;;;;5039514;28;19913;-87
2023/04/10 03:55:29;;;;;;;6.43;4.65;;;11.80;72.60;;;;;;5007615;28;20116;-86
2023/04/10 03:57:55;;;;;;;7.25;5.32;;;11.70;72.60;;;;;;5007289;28;20033;-87
2023/04/10 04:00:24;;;;;;;7.68;5.90;;;11.70;72.70;;;;;;5023075;28;20025;-87
2023/04/10 04:02:59;;;;;;;8.20;5.80;;;11.70;72.70;;;;;;5024303;28;20028;-87
2023/04/10 04:05:51;;;;;;;6.68;5.53;;;11.70;72.80;;;;;;5031102;28;20061;-86
2023/04/10 04:08:25;;;;;;;8.02;5.97;;;11.70;72.80;;;;;;5009224;28;20124;-87
2023/04/10 04:11:05;;;;;;;7.38;5.28;;;11.60;72.70;;;;;;5010316;28;20047;-87
2023/04/10 04:13:42;;;;;;;6.40;5.10;;;11.60;72.80;;;;;;5039876;28;20033;-86
2023/04/10 04:16:15;;;;;;;7.60;5.60;;;11.60;72.80;;;;;;5008766;28;20052;-87
2023/04/10 04:18:49;;;;;;;7.32;5.30;;;11.60;72.90;;;;;;5008926;28;20037;-88
2023/04/10 04:21:40;;;;;;;7.00;5.30;;;11.60;72.90;;;;;;5033246;28;20116;-88
2023/04/10 04:24:17;;;;;;;6.90;5.53;;;11.50;72.80;;;;;;5024115;28;20040;-87
2023/04/10 04:26:55;;;;;;;7.10;5.22;;;11.50;73.50;;;;;;5024841;28;20074;-87
2023/04/10 04:29:53;;;;;;;7.13;5.63;;;11.50;72.90;;;;;;5024576;28;20041;-86
2023/04/10 04:32:45;;;;;;;6.38;4.82;;;11.50;72.90;;;;;;5026104;28;20061;-86
2023/04/10 04:35:37;;;;;;;6.90;5.13;;;11.40;72.80;;;;;;5000163;28;20037;-87
2023/04/10 04:38:15;;;;;;;6.78;5.05;;;11.40;72.80;;;;;;5024995;28;20067;-85
2023/04/10 04:41:01;;;;;;;6.70;5.10;;;11.40;72.90;;;;;;5017898;28;20502;-87
2023/04/10 04:43:43;;;;;;;6.63;5.05;;;11.30;72.90;;;;;;5009823;28;20469;-87
2023/04/10 04:46:26;;;;;;;6.65;4.60;;;11.30;72.90;;;;;;5015577;28;20037;-87
2023/04/10 04:49:10;;;;;;;6.93;5.18;;;11.30;72.90;;;;;;5017572;28;20090;-87
2023/04/10 04:52:02;;;;;;;7.05;5.32;;;11.30;73.00;;;;;;5015697;28;20051;-87
2023/04/10 04:54:51;;;;;;;6.40;4.97;;;11.30;73.00;;;;;;5056713;28;20045;-87
2023/04/10 04:57:37;;;;;;;6.97;4.97;;;11.20;73.00;;;;;;5004814;28;20475;-88
2023/04/10 05:00:22;;;;;;;6.37;4.90;;;11.20;73.00;;;;;;5041712;28;20136;-88
2023/04/10 05:03:16;;;;;;;6.75;5.32;;;11.20;73.00;;;;;;4990210;28;20046;-88
2023/04/10 05:05:58;;;;;;;6.60;5.00;;;11.20;73.60;;;;;;5025013;28;20025;-87
2023/04/10 05:08:32;;;;;;;7.43;5.43;;;11.10;73.00;;;;;;5008908;28;20029;-87
2023/04/10 05:10:58;;;;;;;6.88;5.18;;;11.10;73.00;;;;;;5006970;28;20470;-86
2023/04/10 05:13:53;;;;;;;6.88;5.72;;;11.10;73.10;;;;;;4989860;28;20538;-88
2023/04/10 05:16:33;;;;;;;6.32;4.60;;;11.10;73.10;;;;;;5009426;28;20029;-88
2023/04/10 05:19:19;;;;;;;6.28;5.05;;;11.10;73.10;;;;;;5024892;28;20029;-87
2023/04/10 05:21:54;;;;;;;6.30;4.82;;;11.10;73.10;;;;;;5024148;28;20511;-87
2023/04/10 05:24:25;;;;;;;6.50;4.95;;;11.10;73.20;;;;;;5007199;28;20450;-88
2023/04/10 05:27:10;;;;;;;6.65;5.00;;;11.00;73.20;;;;;;5041702;28;20044;-87
2023/04/10 05:29:58;;;;;;;7.10;5.70;;;11.00;73.80;;;;;;5012659;28;20036;-88
2023/04/10 05:32:57;;;;;;;7.43;5.60;;;11.00;73.20;;;;;;5028237;28;20056;-88
2023/04/10 05:35:34;;;;;;;6.78;5.07;;;11.00;73.20;;;;;;5055871;28;20059;-88
2023/04/10 05:38:12;;;;;;;7.15;5.05;;;11.00;73.20;;;;;;5008784;28;20413;-87
2023/04/10 05:40:49;;;;;;;7.20;5.53;;;11.00;73.20;;;;;;5022429;28;20032;-87
2023/04/10 05:43:33;;;;;;;6.93;5.03;;;10.90;73.20;;;;;;5012603;28;20091;-88
2023/04/10 05:46:11;;;;;;;6.63;5.20;;;10.90;73.80;;;;;;5007713;28;20029;-85
2023/04/10 05:48:55;;;;;;;6.57;5.30;;;10.90;73.20;;;;;;5055261;28;20562;-87
2023/04/10 05:51:33;;;;;;;6.82;5.07;;;10.90;73.10;;;;;;5038031;28;20488;-88
2023/04/10 05:54:17;;;;;;;7.03;5.68;;;10.90;73.20;;;;;;5039718;28;20044;-88
2023/04/10 05:57:06;;;;;;;7.68;5.78;;;10.90;73.20;;;;;;5016632;28;20036;-88
2023/04/10 06:00:01;;;;;;;6.70;5.23;;;10.90;73.20;;;;;;5014118;28;20029;-88
2023/04/10 06:02:39;;;;;;;6.72;5.15;;;10.90;73.20;;;;;;5039313;28;20462;-86
2023/04/10 06:05:08;;;;;;;6.57;5.28;;;10.90;73.20;;;;;;5005509;28;20033;-87
2023/04/10 06:07:37;;;;;;;6.75;5.15;;;10.90;73.20;;;;;;5054647;28;20025;-86
2023/04/10 06:10:03;;;;;;;7.50;5.80;;;10.90;73.20;;;;;;5020940;28;20039;-87
2023/04/10 06:12:33;;;;;;;6.72;5.18;;;10.90;73.30;;;;;;5006181;28;20033;-87
2023/04/10 06:15:01;;;;;;;7.82;6.20;;;10.90;73.30;;;;;;5021504;28;20103;-87
2023/04/10 06:17:29;;;;;;;8.52;5.90;;;10.80;73.20;;;;;;5020903;28;20040;-86
2023/04/10 06:19:55;;;;;;;8.20;6.40;;;10.90;73.20;;;;;;5004925;28;20119;-86
2023/04/10 06:22:21;;;;;;;7.50;5.63;;;10.90;73.20;;;;;;5037369;28;20037;-86
2023/04/10 06:24:47;;;;;;;7.38;5.68;;;10.90;73.20;;;;;;5004714;28;20029;-87
2023/04/10 06:27:13;;;;;;;7.55;6.25;;;10.90;73.20;;;;;;5004243;28;20037;-86
2023/04/10 06:29:39;;;;;;;7.07;5.78;;;10.90;73.20;;;;;;5004025;28;20463;-87
2023/04/10 06:32:05;;;;;;;7.30;5.55;;;10.90;73.20;;;;;;5003616;28;20094;-87
2023/04/10 06:34:35;;;;;;;7.40;6.10;;;10.90;73.20;;;;;;5020740;28;20143;-87
2023/04/10 06:37:04;;;;;;;7.85;6.15;;;10.90;73.20;;;;;;5004863;28;20033;-87
2023/04/10 06:39:30;;;;;;;7.57;6.07;;;10.90;73.20;;;;;;5004246;28;20033;-88
2023/04/10 06:41:56;;;;;;;8.38;6.25;;;10.90;73.20;;;;;;5004038;28;20037;-88
2023/04/10 06:44:28;;;;;;;7.75;6.00;;;11.00;73.30;;;;;;5021674;28;20104;-88
2023/04/10 06:46:54;;;;;;;7.45;5.68;;;10.90;73.20;;;;;;5003666;28;20187;-87
2023/04/10 06:49:20;;;;;;;7.57;6.30;;;11.00;73.30;;;;;;5037014;28;20040;-83
2023/04/10 06:51:47;;;;;;;7.95;6.28;;;10.90;73.20;;;;;;5003678;28;20033;-84
2023/04/10 06:54:13;;;;;;;8.10;6.22;;;11.00;73.30;;;;;;5003860;28;20037;-86
2023/04/10 06:56:39;;;;;;;7.18;5.68;;;11.00;73.90;;;;;;5003860;28;20026;-86
2023/04/10 06:59:05;;;;;;;8.05;5.75;;;11.00;73.20;;;;;;5019997;28;20090;-86
2023/04/10 07:01:31;;;;;;;7.45;5.60;;;11.10;73.30;;;;;;5004448;28;20087;-87
2023/04/10 07:03:56;;;;;;;7.50;5.72;;;11.00;73.20;;;;;;5020190;28;20029;-88
2023/04/10 07:06:22;;;;;;;7.53;6.03;;;11.10;73.30;;;;;;5005264;28;20488;-90
2023/04/10 07:08:48;;;;;;;7.70;6.15;;;11.10;73.30;;;;;;5040961;28;20033;-85
2023/04/10 07:11:14;;;;;;;7.82;6.00;;;11.10;73.20;;;;;;5024067;28;20123;-85
2023/04/10 07:13:40;;;;;;;8.13;5.80;;;11.10;73.20;;;;;;5007378;28;20061;-86
2023/04/10 07:16:09;;;;;;;7.90;6.32;;;11.10;73.30;;;;;;5007912;28;20056;-83
2023/04/10 07:18:37;;;;;;;8.02;6.05;;;11.20;73.30;;;;;;5040921;28;20033;-86
2023/04/10 07:21:10;;;;;;;7.10;5.63;;;11.20;73.30;;;;;;5024410;28;20044;-86
2023/04/10 07:23:36;;;;;;;8.13;6.28;;;11.20;73.30;;;;;;5040837;28;20104;-86
2023/04/10 07:26:01;;;;;;;6.85;5.47;;;11.20;73.20;;;;;;5024396;28;20052;-86
2023/04/10 07:28:27;;;;;;;8.50;6.18;;;11.20;73.20;;;;;;5039388;28;20488;-84
2023/04/10 07:30:53;;;;;;;6.80;4.85;;;11.30;73.20;;;;;;5040296;28;20478;-88
2023/04/10 07:33:19;;;;;;;7.20;5.70;;;11.30;73.20;;;;;;5023787;28;20053;-88
2023/04/10 07:35:44;;;;;;;6.57;5.20;;;11.30;73.20;;;;;;5024086;28;20029;-87
2023/04/10 07:38:11;;;;;;;7.05;5.40;;;11.40;73.20;;;;;;5007038;28;20083;-85
2023/04/10 07:40:37;;;;;;;7.50;5.80;;;11.40;73.10;;;;;;5023070;28;20040;-88
2023/04/10 07:43:03;;;;;;;7.85;5.55;;;11.40;73.10;;;;;;5039741;28;20119;-86
2023/04/10 07:45:29;;;;;;;7.30;5.75;;;11.50;73.10;;;;;;5007826;28;20102;-86
2023/04/10 07:47:55;;;;;;;8.10;5.90;;;11.50;73.10;;;;;;5023266;28;20091;-89
2023/04/10 07:50:21;;;;;;;7.40;6.10;;;11.50;73.00;;;;;;5040545;28;20032;-90
2023/04/10 07:52:48;;;;;;;7.22;5.45;;;11.60;73.00;;;;;;5025828;28;20037;-88
2023/04/10 07:55:14;;;;;;;7.22;5.55;;;11.60;73.00;;;;;;5025193;28;20029;-87
2023/04/10 07:57:40;;;;;;;7.78;5.85;;;11.60;73.00;;;;;;5025965;28;20036;-86
2023/04/10 08:00:06;;;;;;;6.82;5.43;;;11.70;73.00;;;;;;5040335;28;20361;-83
2023/04/10 08:02:39;;;;;;;6.75;5.50;;;11.70;73.00;;;;;;5040643;28;20041;-86
2023/04/10 08:05:06;;;;;;;7.07;5.30;;;11.70;72.90;;;;;;5023627;28;20037;-86
2023/04/10 08:07:32;;;;;;;7.47;5.78;;;11.70;72.80;;;;;;5007898;28;20029;-85
2023/04/10 08:09:57;;;;;;;7.03;5.72;;;11.80;72.80;;;;;;5007784;28;20463;-86
2023/04/10 08:12:23;;;;;;;6.38;5.13;;;11.80;72.80;;;;;;5023697;28;20043;-84
2023/04/10 08:14:50;;;;;;;6.82;5.60;;;11.90;72.80;;;;;;5007376;28;20039;-86
2023/04/10 08:17:16;;;;;;;6.97;5.55;;;11.90;73.40;;;;;;5023370;28;20029;-87
2023/04/10 08:19:42;;;;;;;6.97;5.40;;;11.90;72.70;;;;;;5005654;28;20075;-87
2023/04/10 08:22:08;;;;;;;6.43;4.85;;;12.00;72.80;;;;;;5022744;28;20029;-85
2023/04/10 08:24:33;;;;;;;7.10;5.35;;;12.00;72.70;;;;;;5006560;28;20032;-85
2023/04/10 08:27:02;;;;;;;7.15;5.50;;;12.00;72.70;;;;;;5006421;28;20021;-85
2023/04/10 08:29:28;;;;;;;6.43;5.25;;;12.10;72.80;;;;;;5023317;28;20036;-85
2023/04/10 08:31:55;;;;;;;7.13;5.63;;;12.10;72.80;;;;;;5040103;28;20106;-85
2023/04/10 08:34:23;;;;;;;6.05;4.82;;;12.20;72.70;;;;;;5039054;28;20470;-87
2023/04/10 08:36:49;;;;;;;7.28;5.68;;;12.20;72.70;;;;;;5038982;28;20029;-86
2023/04/10 08:39:14;;;;;;;7.20;5.63;;;12.20;72.60;;;;;;5039383;28;20032;-86
2023/04/10 08:41:40;;;;;;;7.35;5.72;;;12.30;72.60;;;;;;5007314;28;20025;-87
2023/04/10 08:44:06;;;;;;;7.03;5.60;;;12.30;72.60;;;;;;5023893;28;20037;-85
2023/04/10 08:46:35;;;;;;;6.43;4.88;;;12.40;72.50;;;;;;5039444;28;20028;-84
2023/04/10 08:49:03;;;;;;;6.05;4.70;;;12.40;72.50;;;;;;5023704;28;20124;-84
2023/04/10 08:51:45;;;;;;;7.22;5.28;;;12.50;72.50;;;;;;5038753;28;20029;-86
2023/04/10 08:54:22;;;;;;;6.80;5.32;;;12.50;72.50;;;;;;5022672;28;20039;-87
2023/04/10 08:56:50;;;;;;;5.60;4.22;;;12.60;72.40;;;;;;5040018;28;20021;-88
2023/04/10 08:59:16;;;;;;;6.65;5.35;;;12.60;72.30;;;;;;5022022;28;20031;-84
2023/04/10 09:01:42;;;;;;;5.88;4.97;;;12.70;72.20;;;;;;5022553;28;20029;-88
2023/04/10 09:04:10;;;;;;;6.10;4.68;;;12.70;72.20;;;;;;5038998;28;20025;-86
2023/04/10 09:06:36;;;;;;;7.05;5.10;;;12.80;72.20;;;;;;5039326;28;20051;-86
2023/04/10 09:09:02;;;;;;;6.07;5.03;;;12.90;72.10;;;;;;5022191;28;20473;-84
2023/04/10 09:11:59;;;;;;;6.45;4.90;;;12.90;72.00;;;;;;5006308;28;20035;-86
2023/04/10 09:14:28;;;;;;;6.32;5.03;;;13.00;72.00;;;;;;5021910;28;20037;-86
2023/04/10 09:17:10;;;;;;;7.07;5.13;;;13.00;71.80;;;;;;5038190;28;20025;-86
2023/04/10 09:19:36;;;;;;;6.13;4.55;;;13.10;71.80;;;;;;5022325;28;20036;-86
2023/04/10 09:22:02;;;;;;;6.53;4.88;;;13.20;72.40;;;;;;5005427;28;20040;-86
2023/04/10 09:24:27;;;;;;;6.72;4.93;;;13.20;71.70;;;;;;5021751;28;20041;-87
2023/04/10 09:26:54;;;;;;;7.18;5.32;;;13.30;71.70;;;;;;5022046;28;20469;-86
2023/04/10 09:29:20;;;;;;;6.30;4.47;;;13.30;71.70;;;;;;5005295;28;20492;-85
2023/04/10 09:31:46;;;;;;;6.32;4.88;;;13.40;71.70;;;;;;5037964;28;20112;-86
2023/04/10 09:34:13;;;;;;;7.00;5.40;;;13.50;71.70;;;;;;5021745;28;20079;-86
2023/04/10 09:36:44;;;;;;;6.30;4.90;;;13.50;71.60;;;;;;5038902;28;20098;-87
2023/04/10 09:39:11;;;;;;;6.10;4.95;;;13.50;71.60;;;;;;5039247;28;20045;-86
2023/04/10 09:41:52;;;;;;;5.90;4.68;;;13.60;71.60;;;;;;5039045;28;20475;-84
2023/04/10 09:44:39;;;;;;;5.88;4.40;;;13.70;71.60;;;;;;5006795;28;20053;-91
2023/04/10 09:47:17;;;;;;;5.60;4.30;;;13.70;71.60;;;;;;5022173;28;20036;-86
2023/04/10 09:49:47;;;;;;;5.95;4.55;;;13.80;71.60;;;;;;5040613;28;20461;-89
2023/04/10 09:52:26;;;;;;;6.38;4.60;;;13.80;71.50;;;;;;5038877;28;20047;-88
2023/04/10 09:54:53;;;;;;;6.38;4.93;;;13.90;71.50;;;;;;5022962;28;20037;-87
2023/04/10 09:57:20;;;;;;;6.65;5.03;;;13.90;71.40;;;;;;5021797;28;20517;-86
2023/04/10 09:59:49;;;;;;;6.10;4.47;;;14.00;71.40;;;;;;5037409;28;20049;-86
2023/04/10 10:02:17;;;;;;;5.78;4.32;;;14.00;71.40;;;;;;5038115;28;20033;-87
2023/04/10 10:04:45;;;;;;;6.00;4.90;;;14.10;71.40;;;;;;5037992;28;20032;-87
2023/04/10 10:07:12;;;;;;;5.95;4.72;;;14.20;71.40;;;;;;5038150;28;20040;-86
2023/04/10 10:09:39;;;;;;;5.85;4.35;;;14.20;71.40;;;;;;5038164;28;20049;-87
2023/04/10 10:12:06;;;;;;;5.82;4.53;;;14.20;71.30;;;;;;5037647;28;20040;-86
2023/04/10 10:14:35;;;;;;;6.35;4.72;;;14.30;71.30;;;;;;5037664;28;20044;-86
2023/04/10 10:17:06;;;;;;;6.28;4.80;;;14.30;71.30;;;;;;5004824;28;20021;-86
2023/04/10 10:19:41;;;;;;;5.65;4.60;;;14.40;71.30;;;;;;5038168;28;20186;-87
2023/04/10 10:22:09;;;;;;;6.18;4.78;;;14.40;71.20;;;;;;5037353;28;20086;-86
2023/04/10 10:24:37;;;;;;;6.07;4.57;;;14.40;71.10;;;;;;5004403;28;20072;-86
2023/04/10 10:27:08;;;;;;;5.20;4.10;;;14.50;71.10;;;;;;5004781;28;20035;-87
2023/04/10 10:29:35;;;;;;;5.47;4.15;;;14.50;71.10;;;;;;5036770;28;20025;-86
2023/04/10 10:32:05;;;;;;;5.35;4.32;;;14.60;71.10;;;;;;5004744;28;20405;-86
2023/04/10 10:34:32;;;;;;;5.18;3.97;;;14.60;71.10;;;;;;5020636;28;20052;-86
2023/04/10 10:36:58;;;;;;;5.60;4.38;;;14.70;71.10;;;;;;5004736;28;20033;-87
2023/04/10 10:39:26;;;;;;;5.97;4.50;;;14.70;71.10;;;;;;5005058;28;20033;-87
2023/04/10 10:42:10;;;;;;;6.10;4.72;;;14.70;71.00;;;;;;5036397;28;20071;-87
2023/04/10 10:44:59;;;;;;;5.70;4.25;;;14.80;71.10;;;;;;5020591;28;20029;-86
2023/04/10 10:47:31;;;;;;;6.35;4.55;;;14.80;70.90;;;;;;5037745;28;20051;-86
2023/04/10 10:49:58;;;;;;;5.30;4.10;;;14.90;70.90;;;;;;5036567;28;20507;-85
2023/04/10 10:52:52;;;;;;;6.10;4.55;;;15.00;70.90;;;;;;5020603;28;20037;-85
2023/04/10 10:55:21;;;;;;;5.22;3.88;;;15.00;71.00;;;;;;5033639;28;20049;-85
2023/04/10 10:57:51;;;;;;;5.05;3.80;;;15.00;70.80;;;;;;5037184;28;20025;-86
2023/04/10 11:00:18;;;;;;;5.38;3.90;;;15.10;70.90;;;;;;5021176;28;20116;-86
2023/04/10 11:02:44;;;;;;;5.38;4.15;;;15.20;70.90;;;;;;5037753;28;20025;-87
2023/04/10 11:05:30;;;;;;;5.32;4.07;;;15.20;70.90;;;;;;5038152;28;20083;-86
2023/04/10 11:07:58;;;;;;;5.07;3.72;;;15.20;70.90;;;;;;5020602;28;20029;-86
2023/04/10 11:11:04;;;;;;;5.38;4.00;;;15.30;70.90;;;;;;5020608;28;20075;-85
2023/04/10 11:13:31;;;;;;;6.38;3.97;;;15.40;71.00;;;;;;5021271;28;20079;-85
2023/04/10 11:15:58;;;;;;;6.25;4.18;;;15.40;70.80;;;;;;5037107;28;20021;-86
2023/04/10 11:18:43;;;;;;;5.53;4.22;;;15.40;70.80;;;;;;5020980;28;20021;-86
2023/04/10 11:21:14;;;;;;;5.22;3.88;;;15.50;70.90;;;;;;5037881;28;20051;-87
2023/04/10 11:23:48;;;;;;;5.07;3.80;;;15.60;70.80;;;;;;5022777;28;20021;-86
2023/04/10 11:26:39;;;;;;;;;;;15.60;70.80;;;;;;5056691;28;20525;-87
2023/04/10 11:29:11;;;;;;;3.97;2.97;;;15.70;70.70;;;;;;5055512;28;20325;-86
2023/04/10 11:31:37;;;;;;;4.72;3.38;;;15.70;70.60;;;;;;5055141;28;20029;-86
2023/04/10 11:34:06;;;;;;;4.53;3.50;;;15.80;70.60;;;;;;5016879;28;20049;-86
2023/04/10 11:36:34;;;;;;;5.43;3.67;;;15.90;70.70;;;;;;5033243;28;20083;-84
2023/04/10 11:39:01;;;;;;;4.63;3.42;;;15.90;70.60;;;;;;5033280;28;20097;-85
2023/04/10 11:41:49;;;;;;;4.97;3.90;;;16.00;70.70;;;;;;5033348;28;20029;-85
2023/04/10 11:44:31;;;;;;;5.10;4.00;;;16.10;70.70;;;;;;5016357;28;20038;-86
2023/04/10 11:46:57;;;;;;;4.75;3.63;;;16.10;70.60;;;;;;5017131;28;20030;-86
2023/04/10 11:49:26;;;;;;;5.10;3.80;;;16.20;70.50;;;;;;5033974;28;20036;-86
2023/04/10 11:51:52;;;;;;;5.07;3.55;;;16.30;70.60;;;;;;5033235;28;20060;-83
2023/04/10 11:54:20;;;;;;;5.07;3.80;;;16.30;70.50;;;;;;5020320;28;20565;-84
2023/04/10 11:57:01;;;;;;;4.75;3.75;;;16.40;70.50;;;;;;5036372;28;20032;-86
2023/04/10 11:59:28;;;;;;;5.03;3.80;;;16.50;70.50;;;;;;5037322;28;20137;-85
2023/04/10 12:02:14;;;;;;;5.20;3.90;;;16.50;70.40;;;;;;5020230;28;20171;-87
2023/04/10 12:04:41;;;;;;;4.93;3.80;;;16.60;70.50;;;;;;5022402;28;20045;-88
2023/04/10 12:07:07;;;;;;;4.43;3.35;;;16.60;70.40;;;;;;5020493;28;20026;-87
2023/04/10 12:09:33;;;;;;;3.88;3.33;;;16.70;70.40;;;;;;5037000;28;20524;-86
2023/04/10 12:12:00;;;;;;;4.53;3.60;;;16.70;70.30;;;;;;5020415;28;20140;-86
2023/04/10 12:14:37;;;;;;;4.65;3.65;;;16.70;70.30;;;;;;5036720;28;20091;-86
2023/04/10 12:17:05;;;;;;;4.70;3.78;;;16.80;70.30;;;;;;5036984;28;20406;-86
2023/04/10 12:19:32;;;;;;;4.88;3.50;;;16.90;70.30;;;;;;5035841;28;20080;-86
2023/04/10 12:22:00;;;;;;;4.32;3.30;;;17.00;70.30;;;;;;5003698;28;20026;-87
2023/04/10 12:24:46;;;;;;;4.57;3.47;;;17.00;70.30;;;;;;5036228;28;20080;-87
2023/04/10 12:27:19;;;;;;;4.55;3.50;;;17.10;70.40;;;;;;5036475;28;20032;-86
2023/04/10 12:29:46;;;;;;;4.63;3.47;;;17.20;70.30;;;;;;5036255;28;20061;-86
2023/04/10 12:32:12;;;;;;;5.28;3.72;;;17.20;70.30;;;;;;5019826;28;20049;-86
2023/04/10 12:34:38;;;;;;;3.75;3.05;;;17.30;70.30;;;;;;5035998;28;20132;-87
2023/04/10 12:37:05;;;;;;;3.85;3.03;;;17.30;70.30;;;;;;5037143;28;20127;-89
2023/04/10 12:39:31;;;;;;;3.90;2.80;;;17.30;70.20;;;;;;5020325;28;20482;-87
2023/04/10 12:42:25;;;;;;;4.45;3.47;;;17.40;70.20;;;;;;5019549;28;20026;-86
2023/04/10 12:44:57;;;;;;;4.07;3.30;;;17.50;70.30;;;;;;5036597;28;20513;-92
2023/04/10 12:47:24;;;;;;;4.30;3.33;;;17.50;70.20;;;;;;5023326;28;20033;-90
2023/04/10 12:50:10;;;;;;;4.55;3.15;;;17.60;70.20;;;;;;5022051;28;20090;-87
2023/04/10 12:52:39;;;;;;;4.22;2.97;;;17.60;70.20;;;;;;5005253;28;20124;-86
2023/04/10 12:55:12;;;;;;;5.88;3.33;;;17.70;70.10;;;;;;5021312;28;20120;-86
2023/04/10 12:57:40;;;;;;;3.65;3.00;;;17.70;70.10;;;;;;5021249;28;20091;-88
2023/04/10 13:00:13;;;;;;;4.20;3.15;;;17.80;70.10;;;;;;5023414;28;20021;-90
2023/04/10 13:02:40;;;;;;;3.88;2.95;;;17.80;70.10;;;;;;5038722;28;20079;-90
2023/04/10 13:05:10;;;;;;;4.40;3.20;;;17.90;70.10;;;;;;5023650;28;20085;-93
2023/04/10 13:07:41;;;;;;;3.97;2.80;;;17.90;70.10;;;;;;5039951;28;20093;-90
2023/04/10 13:10:09;;;;;;;3.45;2.63;;;18.00;70.10;;;;;;5037473;28;20033;-91